Time;durP1;ratioP1;P1;durP2;ratioP2;P2;SDS_P1;SDS_P2;PMS_P1;PMS_P2;Temp;Humidity;BMP_temperature;BMP_pressure;BME280_temperature;BME280_humidity;BME280_pressure;Samples;Min_cycle;Max_cycle;Signal;HPM_P1;HPM_P2
2021/01/01 00:00:08;;;;;;;11.97;8.50;;;3.80;99.90;;;;;;5131010;27;20311;-73
2021/01/01 00:02:35;;;;;;;10.53;9.10;;;3.80;99.90;;;;;;5130734;27;20741;-73
2021/01/01 00:05:02;;;;;;;12.23;10.27;;;3.80;99.90;;;;;;5130923;27;20237;-73
2021/01/01 00:07:29;;;;;;;11.30;9.90;;;3.80;99.90;;;;;;5130646;27;20678;-72
2021/01/01 00:09:55;;;;;;;13.13;11.03;;;3.80;99.90;;;;;;5130987;27;20232;-73
2021/01/01 00:12:22;;;;;;;13.10;11.67;;;3.80;99.90;;;;;;5130779;27;20293;-73
2021/01/01 00:14:48;;;;;;;16.60;13.57;;;3.80;99.90;;;;;;5129345;27;20296;-73
2021/01/01 00:17:14;;;;;;;16.30;13.63;;;3.80;99.90;;;;;;5130610;27;20205;-73
2021/01/01 00:19:41;;;;;;;20.73;16.70;;;3.80;99.90;;;;;;5130378;27;20209;-73
2021/01/01 00:22:11;;;;;;;22.30;17.00;;;3.80;99.90;;;;;;5130481;27;20249;-73
2021/01/01 00:24:38;;;;;;;27.47;19.93;;;3.80;99.90;;;;;;5130295;27;20236;-72
2021/01/01 00:27:05;;;;;;;28.97;21.70;;;3.80;99.90;;;;;;5130245;27;20201;-73
2021/01/01 00:29:32;;;;;;;26.23;20.60;;;3.80;99.90;;;;;;5130316;27;20209;-73
2021/01/01 00:31:58;;;;;;;29.47;21.90;;;3.80;99.90;;;;;;5130325;27;20278;-73
2021/01/01 00:34:25;;;;;;;31.93;23.33;;;3.80;99.90;;;;;;5130342;27;20623;-73
2021/01/01 00:36:52;;;;;;;33.97;24.13;;;3.80;99.90;;;;;;5130062;27;20682;-73
2021/01/01 00:39:19;;;;;;;32.60;24.63;;;3.80;99.90;;;;;;5130361;27;20197;-73
2021/01/01 00:41:45;;;;;;;33.33;24.20;;;3.80;99.90;;;;;;5130094;27;20604;-73
2021/01/01 00:44:11;;;;;;;34.03;25.23;;;3.80;99.90;;;;;;5130116;27;20699;-73
2021/01/01 00:46:38;;;;;;;32.73;24.17;;;3.80;99.90;;;;;;5129649;27;20284;-73
2021/01/01 00:49:04;;;;;;;38.00;26.07;;;3.80;99.90;;;;;;5129783;27;20292;-73
2021/01/01 00:51:32;;;;;;;38.37;27.33;;;3.80;99.90;;;;;;5129647;27;20205;-73
2021/01/01 00:54:00;;;;;;;37.07;27.57;;;3.80;99.90;;;;;;5129991;27;20292;-73
2021/01/01 00:56:28;;;;;;;35.90;27.43;;;3.80;99.90;;;;;;5129449;27;20612;-73
2021/01/01 00:58:55;;;;;;;37.50;28.60;;;3.70;99.90;;;;;;5129741;27;20205;-73
2021/01/01 01:01:24;;;;;;;34.93;26.80;;;3.80;99.90;;;;;;5129621;27;20300;-73
2021/01/01 01:03:51;;;;;;;37.37;26.63;;;3.70;99.90;;;;;;5129234;27;20237;-73
2021/01/01 01:06:17;;;;;;;37.43;27.77;;;3.70;99.90;;;;;;5129336;27;20217;-73
2021/01/01 01:08:44;;;;;;;32.97;26.40;;;3.70;99.90;;;;;;5129575;27;20201;-73
2021/01/01 01:11:11;;;;;;;34.30;26.57;;;3.70;99.90;;;;;;5129671;27;20627;-73
2021/01/01 01:13:38;;;;;;;34.60;26.77;;;3.70;99.90;;;;;;5129617;27;20944;-73
2021/01/01 01:16:05;;;;;;;35.67;25.87;;;3.70;99.90;;;;;;5129549;27;20217;-73
2021/01/01 01:18:31;;;;;;;34.17;25.63;;;3.70;99.90;;;;;;5129443;27;20197;-73
2021/01/01 01:20:58;;;;;;;33.80;23.90;;;3.70;99.90;;;;;;5129431;27;20296;-73
2021/01/01 01:23:25;;;;;;;30.20;22.70;;;3.70;99.90;;;;;;5129442;27;20635;-73
2021/01/01 01:25:51;;;;;;;31.90;23.43;;;3.70;99.90;;;;;;5128767;27;20209;-73
2021/01/01 01:28:18;;;;;;;31.83;23.53;;;3.70;99.90;;;;;;5129118;27;20216;-73
2021/01/01 01:30:45;;;;;;;32.37;24.30;;;3.70;99.90;;;;;;5128828;27;20296;-73
2021/01/01 01:33:11;;;;;;;32.33;23.93;;;3.70;99.90;;;;;;5129215;27;20207;-73
2021/01/01 01:35:38;;;;;;;35.83;23.80;;;3.70;99.90;;;;;;5128855;27;20625;-73
2021/01/01 01:38:05;;;;;;;30.77;24.23;;;3.70;99.90;;;;;;5129142;27;20231;-73
2021/01/01 01:40:32;;;;;;;32.50;24.77;;;3.70;99.90;;;;;;5129124;27;20216;-73
2021/01/01 01:42:58;;;;;;;34.17;25.60;;;3.70;99.90;;;;;;5128712;27;20234;-73
2021/01/01 01:45:25;;;;;;;35.07;25.57;;;3.70;99.90;;;;;;5128885;27;20747;-73
2021/01/01 01:47:53;;;;;;;35.97;25.57;;;3.70;99.90;;;;;;5128703;27;20258;-73
2021/01/01 01:50:20;;;;;;;34.30;23.90;;;3.70;99.90;;;;;;5128953;27;20661;-73
2021/01/01 01:52:47;;;;;;;31.60;23.67;;;3.70;99.90;;;;;;5128857;27;20205;-73
2021/01/01 01:55:14;;;;;;;27.40;20.90;;;3.70;99.90;;;;;;5128796;27;20247;-73
2021/01/01 01:57:41;;;;;;;30.13;22.40;;;3.70;99.90;;;;;;5128588;27;20233;-73
2021/01/01 02:00:25;;;;;;;26.70;21.97;;;3.70;99.90;;;;;;5128750;27;20272;-73
2021/01/01 02:02:53;;;;;;;27.10;21.00;;;3.70;99.90;;;;;;5128520;27;20615;-73
2021/01/01 02:05:20;;;;;;;25.70;20.63;;;3.70;99.90;;;;;;5128187;27;20324;-73
2021/01/01 02:07:46;;;;;;;23.13;19.07;;;3.70;99.90;;;;;;5128620;27;20211;-72
2021/01/01 02:10:13;;;;;;;24.83;19.27;;;3.70;99.90;;;;;;5128590;27;20284;-73
2021/01/01 02:12:39;;;;;;;26.70;20.73;;;3.70;99.90;;;;;;5128700;27;20219;-73
2021/01/01 02:15:07;;;;;;;29.20;19.50;;;3.70;99.90;;;;;;5113890;27;20217;-73
2021/01/01 02:17:33;;;;;;;25.40;20.40;;;3.70;99.90;;;;;;5107924;28;20301;-73
2021/01/01 02:20:09;;;;;;;25.63;19.30;;;3.70;99.90;;;;;;5107732;28;20792;-73
2021/01/01 02:22:37;;;;;;;26.13;20.13;;;3.70;99.90;;;;;;5107483;28;20211;-73
2021/01/01 02:25:05;;;;;;;24.67;18.53;;;3.70;99.90;;;;;;5107373;28;20599;-73
2021/01/01 02:27:31;;;;;;;26.17;18.73;;;3.70;99.90;;;;;;5107453;28;20240;-73
2021/01/01 02:29:57;;;;;;;25.60;19.87;;;3.70;99.90;;;;;;5122579;27;20639;-74
2021/01/01 02:32:24;;;;;;;31.97;25.37;;;3.70;99.90;;;;;;5118610;28;20194;-74
2021/01/01 02:34:50;;;;;;;29.73;23.37;;;3.70;99.90;;;;;;5115732;28;20206;-74
2021/01/01 02:37:17;;;;;;;24.37;18.07;;;3.80;99.90;;;;;;5118818;28;20288;-71
2021/01/01 02:39:44;;;;;;;25.30;18.40;;;3.80;99.90;;;;;;5123248;27;20206;-72
2021/01/01 02:42:10;;;;;;;26.10;18.60;;;3.80;99.90;;;;;;5112016;28;20229;-72
2021/01/01 02:44:37;;;;;;;22.87;19.00;;;3.80;99.90;;;;;;5111990;27;20246;-72
2021/01/01 02:47:04;;;;;;;31.23;20.30;;;3.70;99.90;;;;;;5111661;28;20205;-71
2021/01/01 02:49:31;;;;;;;28.60;20.43;;;3.70;99.90;;;;;;5111760;28;20350;-71
2021/01/01 02:51:58;;;;;;;28.43;20.93;;;3.70;99.90;;;;;;5111652;28;20212;-71
2021/01/01 02:54:24;;;;;;;27.97;21.87;;;3.70;99.90;;;;;;5111559;28;20266;-71
2021/01/01 02:56:51;;;;;;;30.70;21.70;;;3.70;99.90;;;;;;5111001;28;20230;-71
2021/01/01 02:59:18;;;;;;;29.87;21.83;;;3.70;99.90;;;;;;5113679;27;20687;-71
2021/01/01 03:01:44;;;;;;;27.43;20.80;;;3.60;99.90;;;;;;5131832;27;20643;-72
2021/01/01 03:04:11;;;;;;;27.87;20.20;;;3.60;99.90;;;;;;5131870;27;20598;-72
2021/01/01 03:06:37;;;;;;;25.43;19.03;;;3.60;99.90;;;;;;5131661;27;20231;-72
2021/01/01 03:09:05;;;;;;;24.13;18.83;;;3.60;99.90;;;;;;5131774;27;20201;-72
2021/01/01 03:11:32;;;;;;;25.70;20.07;;;3.60;99.90;;;;;;5131854;27;20287;-71
2021/01/01 03:13:59;;;;;;;26.77;19.37;;;3.60;99.90;;;;;;5131983;27;20219;-71
2021/01/01 03:16:25;;;;;;;26.40;19.30;;;3.60;99.90;;;;;;5131692;27;20205;-71
2021/01/01 03:18:52;;;;;;;26.73;19.10;;;3.60;99.90;;;;;;5131285;27;20209;-71
2021/01/01 03:21:19;;;;;;;25.63;19.47;;;3.60;99.90;;;;;;5131783;27;20205;-71
2021/01/01 03:23:45;;;;;;;25.17;19.17;;;3.60;99.90;;;;;;5131494;27;20233;-72
2021/01/01 03:26:12;;;;;;;26.57;19.03;;;3.60;99.90;;;;;;5131750;27;20296;-71
2021/01/01 03:28:38;;;;;;;24.00;18.63;;;3.60;99.90;;;;;;5131764;27;20237;-71
2021/01/01 03:31:07;;;;;;;24.93;18.77;;;3.60;99.90;;;;;;5131924;27;20288;-72
2021/01/01 03:33:33;;;;;;;23.43;18.47;;;3.60;99.90;;;;;;5131276;27;20552;-72
2021/01/01 03:36:03;;;;;;;24.90;18.80;;;3.60;99.90;;;;;;5131354;27;20660;-71
2021/01/01 03:38:29;;;;;;;25.27;18.30;;;3.60;99.90;;;;;;5131675;27;20209;-73
2021/01/01 03:40:55;;;;;;;23.83;18.70;;;3.60;99.90;;;;;;5131071;27;20210;-73
2021/01/01 03:43:22;;;;;;;23.17;17.93;;;3.60;99.90;;;;;;5131198;27;20391;-73
2021/01/01 03:45:49;;;;;;;23.00;17.80;;;3.60;99.90;;;;;;5131184;27;20201;-77
2021/01/01 03:48:16;;;;;;;23.00;16.77;;;3.60;99.90;;;;;;5131403;27;20215;-74
2021/01/01 03:50:44;;;;;;;21.03;16.70;;;3.60;99.90;;;;;;5131022;27;20205;-73
2021/01/01 03:53:10;;;;;;;20.73;17.27;;;3.60;99.90;;;;;;5130905;27;20212;-71
2021/01/01 03:55:36;;;;;;;23.10;17.13;;;3.60;99.90;;;;;;5130891;27;20815;-71
2021/01/01 03:58:03;;;;;;;23.03;18.27;;;3.60;99.90;;;;;;5131148;27;20300;-71
2021/01/01 04:00:29;;;;;;;20.17;16.53;;;3.60;99.90;;;;;;5130835;27;20202;-71
2021/01/01 04:02:56;;;;;;;22.97;17.30;;;3.60;99.90;;;;;;5130739;27;20260;-71
2021/01/01 04:05:23;;;;;;;24.53;18.77;;;3.60;99.90;;;;;;5130875;27;20232;-71
2021/01/01 04:07:50;;;;;;;20.87;16.73;;;3.60;99.90;;;;;;5130416;27;20208;-71
2021/01/01 04:10:16;;;;;;;22.30;16.80;;;3.60;99.90;;;;;;5130702;27;20229;-71
2021/01/01 04:12:42;;;;;;;22.97;17.00;;;3.60;99.90;;;;;;5130830;27;20606;-71
2021/01/01 04:15:10;;;;;;;20.40;16.37;;;3.60;99.90;;;;;;5131060;27;20296;-71
2021/01/01 04:17:37;;;;;;;21.27;16.13;;;3.60;99.90;;;;;;5130478;27;20266;-71
2021/01/01 04:20:04;;;;;;;21.17;16.60;;;3.60;99.90;;;;;;5130825;27;20205;-71
2021/01/01 04:22:31;;;;;;;22.10;17.13;;;3.60;99.90;;;;;;5130444;27;20637;-71
2021/01/01 04:24:58;;;;;;;21.60;16.83;;;3.60;99.90;;;;;;5130651;27;20240;-72
2021/01/01 04:27:24;;;;;;;24.07;16.07;;;3.60;99.90;;;;;;5130376;27;20686;-71
2021/01/01 04:29:50;;;;;;;21.23;16.40;;;3.60;99.90;;;;;;5130416;27;20205;-71
2021/01/01 04:32:17;;;;;;;19.97;16.40;;;3.60;99.90;;;;;;5130543;27;20445;-71
2021/01/01 04:34:43;;;;;;;22.00;16.40;;;3.60;99.90;;;;;;5130501;27;20209;-71
2021/01/01 04:37:09;;;;;;;20.33;16.60;;;3.60;99.90;;;;;;5130525;27;20629;-72
2021/01/01 04:39:37;;;;;;;21.37;16.57;;;3.60;99.90;;;;;;5130540;27;20208;-72
2021/01/01 04:42:05;;;;;;;22.87;16.27;;;3.60;99.90;;;;;;5130224;27;20217;-72
2021/01/01 04:44:32;;;;;;;23.23;16.80;;;3.60;99.90;;;;;;5130293;27;20236;-72
2021/01/01 04:47:00;;;;;;;18.80;15.63;;;3.60;99.90;;;;;;5129725;27;20839;-73
2021/01/01 04:49:27;;;;;;;21.50;15.70;;;3.50;99.90;;;;;;5129752;27;20817;-73
2021/01/01 04:51:56;;;;;;;20.60;15.83;;;3.60;99.90;;;;;;5129731;27;20965;-72
2021/01/01 04:54:31;;;;;;;19.97;15.77;;;3.60;99.90;;;;;;5130078;27;20204;-72
2021/01/01 04:56:58;;;;;;;20.40;15.10;;;3.50;99.90;;;;;;5129549;27;20243;-72
2021/01/01 04:59:25;;;;;;;21.50;15.83;;;3.50;99.90;;;;;;5129930;27;20253;-71
2021/01/01 05:01:51;;;;;;;19.43;15.43;;;3.50;99.90;;;;;;5129073;27;20346;-71
2021/01/01 05:04:17;;;;;;;19.40;14.63;;;3.50;99.90;;;;;;5129763;27;20320;-71
2021/01/01 05:06:44;;;;;;;20.43;14.77;;;3.50;99.90;;;;;;5129699;27;20296;-71
2021/01/01 05:09:12;;;;;;;18.80;14.50;;;3.50;99.90;;;;;;5129600;27;20778;-71
2021/01/01 05:11:39;;;;;;;17.43;14.63;;;3.50;99.90;;;;;;5129856;27;20288;-71
2021/01/01 05:14:08;;;;;;;19.97;15.13;;;3.50;99.90;;;;;;5129500;27;20632;-71
2021/01/01 05:16:35;;;;;;;18.40;14.33;;;3.50;99.90;;;;;;5129437;27;20202;-71
2021/01/01 05:19:10;;;;;;;18.53;14.97;;;3.50;99.90;;;;;;5129373;27;20208;-71
2021/01/01 05:21:37;;;;;;;16.67;13.77;;;3.50;99.90;;;;;;5129389;27;20190;-72
2021/01/01 05:24:06;;;;;;;17.67;14.20;;;3.50;99.90;;;;;;5129187;27;20235;-71
2021/01/01 05:26:33;;;;;;;17.33;13.90;;;3.50;99.90;;;;;;5129624;27;20205;-71
2021/01/01 05:29:06;;;;;;;20.13;14.73;;;3.50;99.90;;;;;;5129359;27;20588;-72
2021/01/01 05:31:34;;;;;;;17.57;13.57;;;3.50;99.90;;;;;;5129496;27;20634;-72
2021/01/01 05:34:02;;;;;;;18.57;15.03;;;3.50;99.90;;;;;;5129401;27;20644;-71
2021/01/01 05:36:34;;;;;;;17.80;14.27;;;3.50;99.90;;;;;;5129082;27;20208;-71
2021/01/01 05:39:03;;;;;;;17.97;14.17;;;3.60;99.90;;;;;;5128868;27;20237;-71
2021/01/01 05:41:31;;;;;;;17.10;13.93;;;3.50;99.90;;;;;;5129217;27;20201;-71
2021/01/01 05:44:13;;;;;;;18.47;13.50;;;3.60;99.90;;;;;;5129139;27;20598;-71
2021/01/01 05:46:59;;;;;;;19.40;15.23;;;3.60;99.90;;;;;;5129189;27;20190;-71
2021/01/01 05:49:27;;;;;;;18.23;14.33;;;3.50;99.90;;;;;;5129044;27;20201;-71
2021/01/01 05:52:15;;;;;;;16.43;13.33;;;3.50;99.90;;;;;;5129020;27;20233;-71
2021/01/01 05:54:42;;;;;;;19.23;14.33;;;3.50;99.90;;;;;;5128757;27;20200;-72
2021/01/01 05:57:09;;;;;;;19.40;14.50;;;3.50;99.90;;;;;;5129015;27;20202;-72
2021/01/01 05:59:39;;;;;;;19.40;15.20;;;3.50;99.90;;;;;;5129004;27;20201;-72
2021/01/01 06:02:06;;;;;;;16.90;14.53;;;3.50;99.90;;;;;;5128373;27;20727;-72
2021/01/01 06:04:33;;;;;;;19.03;14.87;;;3.40;99.90;;;;;;5128907;27;20229;-72
2021/01/01 06:07:02;;;;;;;17.43;14.30;;;3.40;99.90;;;;;;5128693;27;20209;-72
2021/01/01 06:09:30;;;;;;;17.50;14.20;;;3.40;99.90;;;;;;5129027;27;20624;-72
2021/01/01 06:12:05;;;;;;;18.13;14.57;;;3.40;99.90;;;;;;5127824;27;20671;-72
2021/01/01 06:14:34;;;;;;;22.03;15.57;;;3.40;99.90;;;;;;5128513;27;20198;-72
2021/01/01 06:17:24;;;;;;;17.73;14.40;;;3.30;99.90;;;;;;5128297;27;20210;-72
2021/01/01 06:19:57;;;;;;;20.33;15.23;;;3.30;99.90;;;;;;5128546;27;20728;-70
2021/01/01 06:22:24;;;;;;;20.33;15.23;;;3.30;99.90;;;;;;5128811;27;20590;-70
2021/01/01 06:24:52;;;;;;;18.43;14.13;;;3.30;99.90;;;;;;5128287;27;20588;-70
2021/01/01 06:27:20;;;;;;;20.70;15.33;;;3.30;99.90;;;;;;5128569;27;20251;-73
2021/01/01 06:29:50;;;;;;;19.70;14.80;;;3.30;99.90;;;;;;5128296;27;20205;-73
2021/01/01 06:32:20;;;;;;;17.83;14.83;;;3.30;99.90;;;;;;5128575;27;20205;-73
2021/01/01 06:34:46;;;;;;;18.63;14.83;;;3.30;99.90;;;;;;5128551;27;20201;-73
2021/01/01 06:37:37;;;;;;;19.67;14.77;;;3.30;99.90;;;;;;5128565;27;20206;-73
2021/01/01 06:40:05;;;;;;;18.27;14.60;;;3.30;99.90;;;;;;5128237;27;20190;-73
2021/01/01 06:42:51;;;;;;;17.67;14.33;;;3.30;99.90;;;;;;5128631;27;20205;-73
2021/01/01 06:45:42;;;;;;;17.40;14.30;;;3.30;99.90;;;;;;5128175;27;20324;-73
2021/01/01 06:48:13;;;;;;;18.53;13.50;;;3.30;99.90;;;;;;5127726;27;21007;-73
2021/01/01 06:50:40;;;;;;;16.13;13.33;;;3.30;99.90;;;;;;5128126;27;20281;-72
2021/01/01 06:53:09;;;;;;;19.03;14.23;;;3.30;99.90;;;;;;5128256;27;20209;-71
2021/01/01 06:55:37;;;;;;;16.63;13.77;;;3.30;99.90;;;;;;5128073;27;20241;-71
2021/01/01 06:58:03;;;;;;;17.73;14.07;;;3.30;99.90;;;;;;5128123;27;20205;-71
2021/01/01 07:01:03;;;;;;;17.33;14.03;;;3.30;99.90;;;;;;5128137;27;20202;-71
2021/01/01 07:03:32;;;;;;;16.90;14.00;;;3.30;99.90;;;;;;5127902;27;20228;-71
2021/01/01 07:06:32;;;;;;;16.47;14.10;;;3.30;99.90;;;;;;5128167;27;20205;-72
2021/01/01 07:08:59;;;;;;;17.07;13.80;;;3.30;99.90;;;;;;5127629;27;20205;-71
2021/01/01 07:11:36;;;;;;;18.30;14.70;;;3.30;99.90;;;;;;5127784;28;20198;-72
2021/01/01 07:14:05;;;;;;;19.07;14.17;;;3.30;99.90;;;;;;5128141;27;20218;-71
2021/01/01 07:16:33;;;;;;;15.27;13.03;;;3.30;99.90;;;;;;5127922;27;20557;-72
2021/01/01 07:19:01;;;;;;;17.20;14.03;;;3.30;99.90;;;;;;5128190;27;20208;-72
2021/01/01 07:21:29;;;;;;;16.40;13.60;;;3.30;99.90;;;;;;5127772;27;20205;-72
2021/01/01 07:23:55;;;;;;;18.13;13.83;;;3.30;99.90;;;;;;5128654;27;20325;-73
2021/01/01 07:26:27;;;;;;;18.67;14.33;;;3.30;99.90;;;;;;5131928;27;20197;-73
2021/01/01 07:28:54;;;;;;;17.57;13.47;;;3.30;99.90;;;;;;5131683;27;20216;-73
2021/01/01 07:31:21;;;;;;;17.40;13.67;;;3.30;99.90;;;;;;5131642;27;20234;-72
2021/01/01 07:33:49;;;;;;;17.97;13.83;;;3.30;99.90;;;;;;5131188;27;20689;-72
2021/01/01 07:36:18;;;;;;;17.00;13.17;;;3.30;99.90;;;;;;5131569;27;20205;-73
2021/01/01 07:38:46;;;;;;;15.63;14.00;;;3.30;99.90;;;;;;5131436;27;20635;-73
2021/01/01 07:41:13;;;;;;;17.30;14.47;;;3.20;99.90;;;;;;5131466;27;20247;-71
2021/01/01 07:43:40;;;;;;;18.53;14.53;;;3.30;99.90;;;;;;5131324;27;20672;-71
2021/01/01 07:46:07;;;;;;;16.80;13.27;;;3.20;99.90;;;;;;5131336;27;20514;-71
2021/01/01 07:48:35;;;;;;;17.17;14.03;;;3.20;99.90;;;;;;5131061;27;20207;-72
2021/01/01 07:51:03;;;;;;;17.57;13.77;;;3.20;99.90;;;;;;5131330;27;20211;-72
2021/01/01 07:53:30;;;;;;;17.00;14.33;;;3.20;99.90;;;;;;5130848;27;20211;-72
2021/01/01 07:56:01;;;;;;;17.40;13.97;;;3.20;99.90;;;;;;5130903;27;20251;-72
2021/01/01 07:58:28;;;;;;;17.70;14.03;;;3.20;99.90;;;;;;5131075;27;20549;-72
2021/01/01 08:01:00;;;;;;;19.17;14.50;;;3.20;99.90;;;;;;5130838;27;20206;-72
2021/01/01 08:03:27;;;;;;;18.27;13.63;;;3.30;99.90;;;;;;5130744;27;20733;-72
2021/01/01 08:05:54;;;;;;;16.33;14.17;;;3.20;99.90;;;;;;5130824;27;20324;-72
2021/01/01 08:08:22;;;;;;;19.13;14.43;;;3.30;99.90;;;;;;5130446;27;20220;-72
2021/01/01 08:10:51;;;;;;;17.53;14.03;;;3.30;99.90;;;;;;5130636;27;20270;-72
2021/01/01 08:13:19;;;;;;;18.20;14.30;;;3.30;99.90;;;;;;5130724;27;20304;-72
2021/01/01 08:15:47;;;;;;;18.23;13.97;;;3.30;99.90;;;;;;5130640;27;20666;-72
2021/01/01 08:18:15;;;;;;;17.53;14.53;;;3.30;99.90;;;;;;5130433;27;20716;-72
2021/01/01 08:20:43;;;;;;;17.53;14.50;;;3.30;99.90;;;;;;5130854;27;20206;-72
2021/01/01 08:23:11;;;;;;;20.27;14.23;;;3.30;99.90;;;;;;5130771;27;20197;-71
2021/01/01 08:25:38;;;;;;;18.73;15.00;;;3.30;99.90;;;;;;5130493;27;21067;-72
2021/01/01 08:28:08;;;;;;;18.70;14.43;;;3.30;99.90;;;;;;5130682;27;20209;-72
2021/01/01 08:30:36;;;;;;;20.53;14.47;;;3.30;99.90;;;;;;5130780;27;20253;-72
2021/01/01 08:33:05;;;;;;;19.30;14.77;;;3.30;99.90;;;;;;5130518;27;20288;-72
2021/01/01 08:35:32;;;;;;;17.03;14.47;;;3.40;99.90;;;;;;5129479;27;20201;-72
2021/01/01 08:37:59;;;;;;;17.97;13.70;;;3.40;99.90;;;;;;5130596;27;20288;-72
2021/01/01 08:40:25;;;;;;;17.27;14.20;;;3.40;99.90;;;;;;5130365;27;20206;-72
2021/01/01 08:42:53;;;;;;;19.23;14.67;;;3.40;99.90;;;;;;5130320;27;20573;-72
2021/01/01 08:45:22;;;;;;;17.20;13.57;;;3.40;99.90;;;;;;5130199;27;20692;-72
2021/01/01 08:47:49;;;;;;;19.27;13.90;;;3.40;99.90;;;;;;5130222;27;20216;-72
2021/01/01 08:50:21;;;;;;;16.60;13.83;;;3.40;99.90;;;;;;5130125;27;20295;-72
2021/01/01 08:52:49;;;;;;;17.97;14.47;;;3.50;99.90;;;;;;5129870;27;20589;-71
2021/01/01 08:55:16;;;;;;;16.03;13.27;;;3.40;99.90;;;;;;5129948;27;20245;-71
2021/01/01 08:57:42;;;;;;;19.00;14.23;;;3.50;99.90;;;;;;5130195;27;20237;-71
2021/01/01 09:00:09;;;;;;;18.00;14.13;;;3.50;99.90;;;;;;5129759;27;20205;-71
2021/01/01 09:02:37;;;;;;;18.17;14.97;;;3.40;99.90;;;;;;5130048;27;20273;-72
2021/01/01 09:05:06;;;;;;;19.00;13.83;;;3.40;99.90;;;;;;5129858;27;20236;-72
2021/01/01 09:07:33;;;;;;;16.53;14.27;;;3.50;99.90;;;;;;5129644;27;20833;-72
2021/01/01 09:10:15;;;;;;;19.73;15.03;;;3.40;99.90;;;;;;5129867;27;20201;-72
2021/01/01 09:12:41;;;;;;;19.00;14.40;;;3.40;99.90;;;;;;5127692;27;20204;-72
2021/01/01 09:15:09;;;;;;;18.23;14.43;;;3.40;99.90;;;;;;5129652;27;20259;-72
2021/01/01 09:17:36;;;;;;;19.40;14.57;;;3.50;99.90;;;;;;5129458;27;20660;-72
2021/01/01 09:20:04;;;;;;;19.03;14.73;;;3.60;99.90;;;;;;5129614;27;20224;-72
2021/01/01 09:22:35;;;;;;;18.60;14.60;;;3.60;99.90;;;;;;5129389;27;20672;-72
2021/01/01 09:25:21;;;;;;;18.50;14.93;;;3.60;99.90;;;;;;5128987;27;20233;-72
2021/01/01 09:27:49;;;;;;;16.93;14.53;;;3.60;99.90;;;;;;5129213;27;20212;-73
2021/01/01 09:30:18;;;;;;;17.73;13.60;;;3.60;99.90;;;;;;5129590;27;20210;-72
2021/01/01 09:32:46;;;;;;;19.70;15.50;;;3.60;99.90;;;;;;5129307;27;21019;-73
2021/01/01 09:35:13;;;;;;;16.50;13.87;;;3.60;99.90;;;;;;5129333;27;20209;-73
2021/01/01 09:37:47;;;;;;;17.67;14.53;;;3.70;99.90;;;;;;5129415;27;20213;-73
2021/01/01 09:40:15;;;;;;;18.43;14.10;;;3.70;99.90;;;;;;5129343;27;20189;-73
2021/01/01 09:42:41;;;;;;;18.23;14.60;;;3.60;99.90;;;;;;5129459;27;20236;-72
2021/01/01 09:45:08;;;;;;;16.50;13.93;;;3.50;99.90;;;;;;5128984;27;21046;-72
2021/01/01 09:47:34;;;;;;;17.97;14.00;;;3.50;99.90;;;;;;5129019;27;20232;-72
2021/01/01 09:50:02;;;;;;;19.40;14.77;;;3.60;99.90;;;;;;5125356;27;20201;-71
2021/01/01 09:52:28;;;;;;;19.67;14.57;;;3.60;99.90;;;;;;5118158;27;20200;-72
2021/01/01 09:54:55;;;;;;;17.60;14.60;;;3.60;99.90;;;;;;5120009;27;20197;-70
2021/01/01 09:57:21;;;;;;;17.47;14.10;;;3.60;99.90;;;;;;5117478;27;20216;-71
2021/01/01 09:59:47;;;;;;;23.03;15.83;;;3.60;99.90;;;;;;5120143;27;20293;-70
2021/01/01 10:02:14;;;;;;;17.90;14.13;;;3.70;99.90;;;;;;5120569;27;20227;-71
2021/01/01 10:04:40;;;;;;;17.90;14.10;;;3.70;99.90;;;;;;5116484;27;20721;-73
2021/01/01 10:07:07;;;;;;;17.87;14.23;;;3.70;99.90;;;;;;5118915;27;20201;-72
2021/01/01 10:09:34;;;;;;;19.73;14.60;;;3.70;99.90;;;;;;5114677;27;20374;-73
2021/01/01 10:12:04;;;;;;;20.30;14.60;;;3.70;99.90;;;;;;5119629;27;20706;-72
2021/01/01 10:14:31;;;;;;;16.93;14.03;;;3.60;99.90;;;;;;5113546;27;20193;-71
2021/01/01 10:16:57;;;;;;;18.73;14.77;;;3.60;99.90;;;;;;5110964;28;20209;-75
2021/01/01 10:19:24;;;;;;;17.80;14.13;;;3.60;99.90;;;;;;5110503;27;20569;-72
2021/01/01 10:21:50;;;;;;;20.40;15.30;;;3.70;99.90;;;;;;5117235;27;20250;-72
2021/01/01 10:24:18;;;;;;;19.83;14.07;;;3.70;99.90;;;;;;5115287;27;20567;-72
2021/01/01 10:26:48;;;;;;;19.13;14.17;;;3.70;99.90;;;;;;5118865;27;20288;-72
2021/01/01 10:29:14;;;;;;;18.43;14.83;;;3.70;99.90;;;;;;5118667;27;20221;-72
2021/01/01 10:31:41;;;;;;;19.30;14.93;;;3.80;99.90;;;;;;5123422;27;20211;-72
2021/01/01 10:34:07;;;;;;;18.27;15.13;;;3.70;99.90;;;;;;5118524;27;20286;-72
2021/01/01 10:36:33;;;;;;;19.13;15.20;;;3.60;99.90;;;;;;5105999;28;20210;-72
2021/01/01 10:39:00;;;;;;;19.90;14.90;;;3.60;99.90;;;;;;5114388;28;20748;-72
2021/01/01 10:41:27;;;;;;;23.40;17.80;;;3.60;99.90;;;;;;5115249;27;20226;-72
2021/01/01 10:43:53;;;;;;;23.27;18.33;;;3.60;99.90;;;;;;5121216;28;20216;-72
2021/01/01 10:46:20;;;;;;;23.20;17.63;;;3.50;99.90;;;;;;5105475;28;20234;-72
2021/01/01 10:48:46;;;;;;;22.60;16.80;;;3.50;99.90;;;;;;5105707;28;20700;-72
2021/01/01 10:51:20;;;;;;;25.40;18.43;;;3.60;99.90;;;;;;5110744;28;20205;-72
2021/01/01 10:53:46;;;;;;;27.93;21.27;;;3.60;99.90;;;;;;5116046;28;20679;-72
2021/01/01 10:56:20;;;;;;;22.50;17.63;;;3.70;99.90;;;;;;5110262;28;20632;-72
2021/01/01 10:58:47;;;;;;;18.87;15.10;;;3.60;99.90;;;;;;5109584;28;20190;-72
2021/01/01 11:01:18;;;;;;;31.53;21.40;;;3.60;99.90;;;;;;5109992;28;20212;-72
2021/01/01 11:03:44;;;;;;;21.87;16.93;;;3.50;99.90;;;;;;5109504;28;20222;-72
2021/01/01 11:06:11;;;;;;;27.63;17.37;;;3.50;99.90;;;;;;5109623;28;20234;-72
2021/01/01 11:08:39;;;;;;;24.30;17.83;;;3.50;99.90;;;;;;5109955;28;20399;-72
2021/01/01 11:11:06;;;;;;;24.10;18.00;;;3.50;99.90;;;;;;5109770;28;20611;-72
2021/01/01 11:13:32;;;;;;;20.10;15.90;;;3.60;99.90;;;;;;5109555;28;20248;-72
2021/01/01 12:22:16;;;;;;;21.07;15.10;;;3.80;99.90;;;;;;5119497;27;20474;-72
2021/01/01 12:24:49;;;;;;;19.63;15.10;;;3.70;99.90;;;;;;5119268;27;20265;-72
2021/01/01 12:27:17;;;;;;;21.93;15.30;;;3.80;99.90;;;;;;5117858;27;20297;-73
2021/01/01 12:29:44;;;;;;;17.50;14.40;;;3.90;99.90;;;;;;5118547;27;20247;-75
2021/01/01 12:32:11;;;;;;;19.53;14.63;;;3.90;99.90;;;;;;5117381;27;20546;-71
2021/01/01 12:34:38;;;;;;;22.37;15.83;;;3.90;99.90;;;;;;5118080;27;20219;-79
2021/01/01 12:37:04;;;;;;;19.73;14.93;;;3.90;99.90;;;;;;5116000;27;20191;-75
2021/01/01 12:39:31;;;;;;;21.30;16.00;;;3.90;99.90;;;;;;5108469;28;20208;-74
2021/01/01 12:41:58;;;;;;;20.27;15.60;;;3.90;99.90;;;;;;5108178;28;20216;-75
2021/01/01 12:44:24;;;;;;;17.77;13.77;;;3.90;99.90;;;;;;5107893;28;20206;-76
2021/01/01 12:46:52;;;;;;;19.33;14.07;;;3.80;99.90;;;;;;5107754;28;20209;-75
2021/01/01 12:49:18;;;;;;;18.17;14.53;;;3.80;99.90;;;;;;5115365;27;20297;-75
2021/01/01 12:51:45;;;;;;;19.77;14.87;;;3.80;99.90;;;;;;5128737;27;20205;-75
2021/01/01 12:54:11;;;;;;;20.83;15.70;;;3.80;99.90;;;;;;5128437;27;20671;-75
2021/01/01 12:56:39;;;;;;;17.97;14.17;;;3.90;99.90;;;;;;5128202;27;20234;-75
2021/01/01 12:59:05;;;;;;;15.10;13.37;;;3.90;99.90;;;;;;5128193;27;20262;-75
2021/01/01 13:01:32;;;;;;;15.67;13.37;;;3.90;99.90;;;;;;5128313;27;20215;-75
2021/01/01 13:03:59;;;;;;;21.00;15.43;;;3.90;99.90;;;;;;5128251;27;20205;-74
2021/01/01 13:06:25;;;;;;;18.97;15.07;;;3.80;99.90;;;;;;5128343;27;20232;-75
2021/01/01 13:08:52;;;;;;;17.80;14.33;;;3.90;99.90;;;;;;5128521;27;20323;-74
2021/01/01 13:11:18;;;;;;;18.13;14.87;;;3.90;99.90;;;;;;5128185;27;20682;-74
2021/01/01 13:13:45;;;;;;;16.00;13.37;;;3.90;99.90;;;;;;5129180;27;20612;-75
2021/01/01 13:16:12;;;;;;;15.83;12.30;;;3.90;99.90;;;;;;5128723;27;20232;-74
2021/01/01 13:18:40;;;;;;;25.47;18.27;;;3.90;99.90;;;;;;5128589;27;20205;-74
2021/01/01 13:21:07;;;;;;;18.73;15.60;;;3.90;99.90;;;;;;5128147;27;20213;-75
2021/01/01 13:23:38;;;;;;;17.17;14.13;;;3.90;99.90;;;;;;5127861;27;20410;-75
2021/01/01 13:26:04;;;;;;;17.50;14.10;;;3.90;99.90;;;;;;5128456;27;20232;-74
2021/01/01 13:28:31;;;;;;;17.23;14.03;;;3.90;99.90;;;;;;5128542;27;20214;-75
2021/01/01 13:30:58;;;;;;;16.43;13.13;;;3.80;99.90;;;;;;5128628;27;20210;-75
2021/01/01 13:33:24;;;;;;;17.63;14.13;;;3.80;99.90;;;;;;5128425;27;20716;-75
2021/01/01 13:35:52;;;;;;;15.40;12.37;;;3.70;99.90;;;;;;5124920;27;20573;-74
2021/01/01 13:38:19;;;;;;;16.87;14.57;;;3.70;99.90;;;;;;5116867;27;20209;-78
2021/01/01 13:40:45;;;;;;;20.97;17.03;;;3.80;99.90;;;;;;5117471;27;20200;-78
2021/01/01 13:43:12;;;;;;;17.60;14.30;;;3.80;99.90;;;;;;5118111;27;20197;-74
2021/01/01 13:45:40;;;;;;;14.80;11.77;;;3.90;99.90;;;;;;5125821;27;20321;-75
2021/01/01 13:48:08;;;;;;;15.57;12.53;;;3.90;99.90;;;;;;5127513;27;20519;-74